Time;durP1;ratioP1;P1;durP2;ratioP2;P2;SDS_P1;SDS_P2;PMS_P1;PMS_P2;Temp;Humidity;BMP_temperature;BMP_pressure;BME280_temperature;BME280_humidity;BME280_pressure;Samples;Min_cycle;Max_cycle;Signal;HPM_P1;HPM_P2
2023/11/27 00:00:44;;;;;;;24.17;15.13;;;;;;;-146.25;100.00;52607.47;2079961;28;39158;-83
2023/11/27 00:01:45;;;;;;;23.88;16.15;;;;;;;-146.25;100.00;52573.00;2086582;28;35137;-83
2023/11/27 00:02:47;;;;;;;23.10;15.93;;;;;;;-146.25;100.00;52597.31;2087777;28;31076;-84
2023/11/27 00:03:49;;;;;;;23.60;15.88;;;;;;;-146.25;100.00;52623.69;2087589;28;37686;-84
2023/11/27 00:04:53;;;;;;;23.20;15.23;;;;;;;-146.25;100.00;52601.38;2087463;28;39273;-81
2023/11/27 00:05:55;;;;;;;23.83;15.50;;;;;;;-146.25;100.00;52633.81;2086785;28;34298;-84
2023/11/27 00:07:00;;;;;;;24.83;15.25;;;;;;;-146.25;100.00;52633.81;2079622;28;20034;-83
2023/11/27 00:08:01;;;;;;;19.98;14.52;;;;;;;-146.25;100.00;52601.38;2087326;28;33735;-84
2023/11/27 00:09:04;;;;;;;23.05;14.95;;;;;;;-146.25;100.00;52615.56;2087048;28;34045;-82
2023/11/27 00:10:06;;;;;;;20.05;13.85;;;;;;;-146.25;100.00;52579.06;2087231;28;33890;-83
2023/11/27 00:11:08;;;;;;;24.13;15.50;;;;;;;-146.25;100.00;52613.53;2088018;28;35163;-82
2023/11/27 00:12:12;;;;;;;20.85;15.15;;;;;;;-146.25;100.00;52607.47;2087398;28;35781;-83
2023/11/27 00:13:17;;;;;;;23.48;15.50;;;;;;;-146.25;100.00;52623.69;2087524;28;31045;-84
2023/11/27 00:14:21;;;;;;;24.10;15.63;;;;;;;-146.25;100.00;52637.88;2088188;28;20053;-84
2023/11/27 00:15:24;;;;;;;24.00;15.90;;;;;;;-146.25;100.00;52603.41;2088254;28;20059;-82
2023/11/27 00:16:31;;;;;;;24.42;15.48;;;;;;;-146.25;100.00;52601.38;2088300;28;20058;-84
2023/11/27 00:17:36;;;;;;;23.00;15.35;;;;;;;-146.25;100.00;52641.94;2088540;28;20160;-83
2023/11/27 00:18:41;;;;;;;26.38;16.25;;;;;;;-146.25;100.00;52566.91;2088711;28;20119;-85
2023/11/27 00:19:46;;;;;;;25.15;15.85;;;;;;;-146.25;100.00;52621.66;2088268;28;20156;-84
2023/11/27 00:20:54;;;;;;;28.00;16.50;;;;;;;-146.25;100.00;52611.50;2088197;28;20952;-84
2023/11/27 00:22:00;;;;;;;27.45;16.83;;;;;;;-146.25;100.00;52621.66;2087459;28;20882;-84
2023/11/27 00:23:12;;;;;;;26.33;17.13;;;;;;;-146.25;100.00;52583.13;2088188;28;20034;-84
2023/11/27 00:24:16;;;;;;;27.70;16.92;;;;;;;-146.25;100.00;52605.44;2088320;28;20845;-85
2023/11/27 00:25:19;;;;;;;30.65;16.75;;;;;;;-146.25;100.00;52595.28;2087569;28;20296;-83
2023/11/27 00:26:22;;;;;;;26.00;17.15;;;;;;;-146.25;100.00;52573.00;2087999;28;21128;-85
2023/11/27 00:27:32;;;;;;;24.45;16.63;;;;;;;-146.25;100.00;52627.75;2089570;28;20046;-84
2023/11/27 00:28:38;;;;;;;27.35;16.98;;;;;;;-146.25;100.00;52617.59;2088471;28;20049;-85
2023/11/27 00:29:42;;;;;;;24.63;17.33;;;;;;;-146.25;100.00;52627.75;2088953;28;20044;-85
2023/11/27 00:30:46;;;;;;;26.83;16.83;;;;;;;-146.25;100.00;52603.41;2089613;28;20049;-85
2023/11/27 00:31:54;;;;;;;27.17;17.83;;;;;;;-146.25;100.00;52627.75;2089878;28;21008;-84
2023/11/27 00:33:00;;;;;;;26.83;16.15;;;;;;;-146.25;100.00;52619.63;2088795;28;20172;-84
2023/11/27 00:34:06;;;;;;;27.17;15.90;;;;;;;-146.25;100.00;52609.50;2089426;28;20189;-82
2023/11/27 00:35:12;;;;;;;25.75;16.35;;;;;;;-146.25;100.00;52633.81;2089804;28;20119;-84
2023/11/27 00:36:16;;;;;;;25.50;16.65;;;;;;;-146.25;100.00;52593.25;2088847;28;20104;-83
2023/11/27 00:37:20;;;;;;;28.05;16.92;;;;;;;-146.25;100.00;52564.88;2088850;28;20119;-83
2023/11/27 00:38:26;;;;;;;25.73;16.55;;;;;;;-146.25;100.00;52603.41;2089273;28;20147;-85
2023/11/27 00:39:33;;;;;;;28.58;17.50;;;;;;;-146.25;100.00;52619.63;2080649;28;20045;-83
2023/11/27 00:40:37;;;;;;;25.58;16.77;;;;;;;-146.25;100.00;52607.47;2074438;28;20042;-84
2023/11/27 00:41:41;;;;;;;25.48;16.95;;;;;;;-146.25;100.00;52619.63;2081310;28;20155;-82
2023/11/27 00:42:48;;;;;;;26.38;17.05;;;;;;;-146.25;100.00;52579.06;2072685;28;20112;-84
2023/11/27 00:43:55;;;;;;;;;;;;;;;-146.25;100.00;52615.56;2084121;28;20068;-84
2023/11/27 00:45:05;;;;;;;24.33;15.90;;;;;;;-146.25;100.00;52605.44;2096190;28;19921;-84
2023/11/27 00:46:10;;;;;;;26.88;16.45;;;;;;;-146.25;100.00;52599.34;2088984;28;20040;-83
2023/11/27 00:47:20;;;;;;;27.60;16.27;;;;;;;-146.25;100.00;52631.78;2088996;28;20882;-84
2023/11/27 00:48:24;;;;;;;24.30;16.48;;;;;;;-146.25;100.00;52579.06;2080619;28;20045;-84
2023/11/27 00:49:30;;;;;;;27.45;17.38;;;;;;;-146.25;100.00;52621.66;2080979;28;20102;-84
2023/11/27 00:50:34;;;;;;;29.33;17.38;;;;;;;-146.25;100.00;52597.31;2089169;28;20156;-83
2023/11/27 00:51:41;;;;;;;26.67;17.60;;;;;;;-146.25;100.00;52613.53;2088916;28;20156;-84
2023/11/27 00:52:45;;;;;;;28.45;17.88;;;;;;;-146.25;100.00;52617.59;2088875;28;20870;-84
2023/11/27 00:53:48;;;;;;;27.50;17.17;;;;;;;-146.25;100.00;52619.63;2080639;28;20038;-84
2023/11/27 00:54:53;;;;;;;27.98;17.75;;;;;;;-146.25;100.00;52615.56;2081313;28;24441;-83
2023/11/27 00:55:59;;;;;;;25.58;17.30;;;;;;;-146.25;100.00;52597.31;2088732;28;20156;-83
2023/11/27 00:57:03;;;;;;;29.65;17.63;;;;;;;-146.25;100.00;52607.47;2088709;28;20167;-84
2023/11/27 00:58:10;;;;;;;28.42;17.77;;;;;;;-146.25;100.00;52621.66;2081173;28;20046;-84
2023/11/27 00:59:15;;;;;;;27.50;16.63;;;;;;;-146.25;100.00;52587.19;2074010;28;22108;-85
2023/11/27 01:00:18;;;;;;;28.48;16.80;;;;;;;-146.25;100.00;52587.19;2081804;28;20042;-85
2023/11/27 01:01:22;;;;;;;29.63;17.55;;;;;;;-146.25;100.00;52617.59;2080041;28;21091;-82
2023/11/27 01:02:29;;;;;;;27.40;17.80;;;;;;;-146.25;100.00;52660.19;2089091;28;20906;-83
2023/11/27 01:03:34;;;;;;;31.05;17.88;;;;;;;-146.25;100.00;52623.69;2080947;28;20976;-82
2023/11/27 01:04:40;;;;;;;33.00;18.02;;;;;;;-146.25;100.00;52619.63;2081660;28;20431;-84
2023/11/27 01:05:44;;;;;;;31.73;18.30;;;;;;;-146.25;100.00;52613.53;2081673;28;20084;-83
2023/11/27 01:06:52;;;;;;;29.77;17.83;;;;;;;-146.25;100.00;52593.25;2089502;28;20025;-82
2023/11/27 01:07:57;;;;;;;29.67;17.80;;;;;;;-146.25;100.00;52562.84;2088222;28;27275;-83
2023/11/27 01:09:00;;;;;;;28.67;17.48;;;;;;;-146.25;100.00;52658.16;2080768;28;21065;-83
2023/11/27 01:10:02;;;;;;;32.63;19.15;;;;;;;-146.25;100.00;52589.22;2088775;28;20318;-82
2023/11/27 01:11:04;;;;;;;29.98;18.48;;;;;;;-146.25;100.00;52601.38;2084638;28;21225;-82
2023/11/27 01:12:06;;;;;;;31.52;20.00;;;;;;;-146.25;100.00;52597.31;2079910;28;26915;-83
2023/11/27 01:13:10;;;;;;;31.02;19.67;;;;;;;-146.25;100.00;52615.56;2088170;28;30172;-82
2023/11/27 01:14:12;;;;;;;31.90;19.27;;;;;;;-146.25;100.00;52613.53;2092588;28;29874;-82
2023/11/27 01:15:14;;;;;;;31.50;18.85;;;;;;;-146.25;100.00;52581.09;2088013;28;31208;-82
2023/11/27 01:16:16;;;;;;;32.55;19.55;;;;;;;-146.25;100.00;52603.41;2087912;28;25994;-82
2023/11/27 01:17:17;;;;;;;33.00;20.00;;;;;;;-146.25;100.00;52611.50;2088624;28;22464;-83
2023/11/27 01:18:24;;;;;;;34.72;20.13;;;;;;;-146.25;100.00;52627.75;2088605;28;20046;-83
2023/11/27 01:19:26;;;;;;;36.67;20.55;;;;;;;-146.25;100.00;52623.69;2088751;28;20061;-81
2023/11/27 01:20:28;;;;;;;33.45;20.17;;;;;;;-146.25;100.00;52595.28;2089077;28;20046;-81
2023/11/27 01:21:30;;;;;;;35.90;20.58;;;;;;;-146.25;100.00;52607.47;2088156;28;28860;-82
2023/11/27 01:22:31;;;;;;;37.08;20.15;;;;;;;-146.25;100.00;52591.25;2088112;28;24337;-82
2023/11/27 01:23:33;;;;;;;30.65;19.08;;;;;;;-146.25;100.00;52615.56;2088172;28;33814;-82
2023/11/27 01:24:36;;;;;;;36.17;21.20;;;;;;;-146.25;100.00;52617.59;2087602;28;33352;-82
2023/11/27 01:25:40;;;;;;;36.42;20.80;;;;;;;-146.25;100.00;52611.50;2089310;28;20029;-82
2023/11/27 01:26:44;;;;;;;37.00;21.00;;;;;;;-146.25;100.00;52629.75;2088512;28;30046;-82
2023/11/27 01:27:49;;;;;;;36.97;20.73;;;;;;;-146.25;100.00;52591.25;2088801;28;20053;-81
2023/11/27 01:28:51;;;;;;;34.13;21.48;;;;;;;-146.25;100.00;52617.59;2087754;28;28880;-81
2023/11/27 01:29:53;;;;;;;42.58;22.63;;;;;;;-146.25;100.00;52623.69;2089138;28;24801;-82
2023/11/27 01:30:55;;;;;;;37.60;21.05;;;;;;;-146.25;100.00;52609.50;2088790;28;20029;-81
2023/11/27 01:32:00;;;;;;;41.45;22.77;;;;;;;-146.25;100.00;52652.06;2088729;28;28856;-82
2023/11/27 01:33:05;;;;;;;39.45;22.20;;;;;;;-146.25;100.00;52570.97;2080138;28;20046;-82
2023/11/27 01:34:07;;;;;;;38.65;22.45;;;;;;;-146.25;100.00;52615.56;2065248;28;30699;-81
2023/11/27 01:35:09;;;;;;;36.90;21.58;;;;;;;-146.25;100.00;52595.28;2071986;28;33710;-81
2023/11/27 01:36:11;;;;;;;46.13;23.20;;;;;;;-146.25;100.00;52617.59;2088941;28;20810;-81
2023/11/27 01:37:12;;;;;;;40.97;22.38;;;;;;;-146.25;100.00;52627.75;2087647;28;31657;-81
2023/11/27 01:38:14;;;;;;;41.00;22.50;;;;;;;-146.25;100.00;52613.53;2088308;28;26685;-82
2023/11/27 01:39:16;;;;;;;41.92;22.63;;;;;;;-146.25;100.00;52633.81;2096352;28;29217;-81
2023/11/27 01:40:18;;;;;;;43.88;23.13;;;;;;;-146.25;100.00;52607.47;2088527;28;20902;-81
2023/11/27 01:41:20;;;;;;;36.15;22.70;;;;;;;-146.25;100.00;52613.53;2088111;28;20042;-81
2023/11/27 01:42:22;;;;;;;40.83;22.25;;;;;;;-146.25;100.00;52595.28;2088897;28;32051;-81
2023/11/27 01:43:24;;;;;;;43.40;23.65;;;;;;;-146.25;100.00;52615.56;2089310;28;21551;-81
2023/11/27 01:44:27;;;;;;;42.85;23.95;;;;;;;-146.25;100.00;52603.41;2088818;28;26624;-81
2023/11/27 01:45:32;;;;;;;45.28;23.85;;;;;;;-146.25;100.00;52609.50;2088280;28;29676;-81
2023/11/27 01:46:46;;;;;;;44.50;23.33;;;;;;;-146.25;100.00;52607.47;2080076;28;20038;-81
2023/11/27 01:47:51;;;;;;;47.28;24.23;;;;;;;-146.25;100.00;52611.50;2084807;28;20034;-82
2023/11/27 01:48:57;;;;;;;44.90;24.52;;;;;;;-146.25;100.00;52652.06;2079989;28;28209;-80
2023/11/27 01:49:59;;;;;;;40.78;23.38;;;;;;;-146.25;100.00;52609.50;2080612;28;26183;-81
2023/11/27 01:51:01;;;;;;;46.22;25.73;;;;;;;-146.25;100.00;52589.22;2087677;28;32703;-81
2023/11/27 01:52:07;;;;;;;46.15;24.30;;;;;;;-146.25;100.00;52625.72;2088595;28;20921;-81
2023/11/27 01:53:09;;;;;;;46.03;24.58;;;;;;;-146.25;100.00;52599.34;2079570;28;34739;-81
2023/11/27 01:54:11;;;;;;;46.53;24.45;;;;;;;-146.25;100.00;52611.50;2080756;28;21405;-81
2023/11/27 01:55:15;;;;;;;45.45;24.40;;;;;;;-146.25;100.00;52593.25;2087999;28;29327;-80
2023/11/27 01:56:20;;;;;;;48.47;24.70;;;;;;;-146.25;100.00;52599.34;2087777;28;24713;-81
2023/11/27 01:57:25;;;;;;;47.00;24.35;;;;;;;-146.25;100.00;52607.47;2080412;28;20143;-81
2023/11/27 01:58:27;;;;;;;48.47;24.60;;;;;;;-146.25;100.00;52637.88;2080672;28;28650;-81
2023/11/27 01:59:31;;;;;;;44.35;25.75;;;;;;;-146.25;100.00;52627.75;2080149;28;21977;-81
2023/11/27 02:00:33;;;;;;;45.65;25.60;;;;;;;-146.25;100.00;52619.63;2072740;28;20034;-81
2023/11/27 02:01:35;;;;;;;48.05;25.20;;;;;;;-146.25;100.00;52605.44;2071523;28;30274;-81
2023/11/27 02:02:45;;;;;;;47.20;25.58;;;;;;;-146.25;100.00;52595.28;2088210;28;20041;-80
2023/11/27 02:03:46;;;;;;;46.70;24.92;;;;;;;-146.25;100.00;52625.72;2081413;28;20049;-81
2023/11/27 02:04:48;;;;;;;45.25;25.58;;;;;;;-146.25;100.00;52643.97;2080946;28;20054;-80
2023/11/27 02:05:50;;;;;;;48.95;26.67;;;;;;;-146.25;100.00;52623.69;2080160;28;29436;-80
2023/11/27 02:06:53;;;;;;;47.35;27.10;;;;;;;-146.25;100.00;52639.91;2088454;28;20901;-81
2023/11/27 02:07:54;;;;;;;47.00;25.52;;;;;;;-146.25;100.00;52609.50;2095987;28;28906;-80
2023/11/27 02:08:57;;;;;;;48.20;27.08;;;;;;;-146.25;100.00;52609.50;2081262;28;24247;-81
2023/11/27 02:09:59;;;;;;;51.83;26.95;;;;;;;-146.25;100.00;52577.03;2071559;28;29606;-80
2023/11/27 02:11:00;;;;;;;48.38;26.13;;;;;;;-146.25;100.00;52601.38;2079527;28;26286;-81
2023/11/27 02:12:06;;;;;;;48.67;25.92;;;;;;;-146.25;100.00;52611.50;2079626;28;30246;-81
2023/11/27 02:13:08;;;;;;;57.03;27.75;;;;;;;-146.25;100.00;52617.59;2080177;28;32733;-81
2023/11/27 02:14:10;;;;;;;48.00;27.25;;;;;;;-146.25;100.00;52627.75;2084080;28;24915;-81
2023/11/27 02:15:12;;;;;;;51.75;29.33;;;;;;;-146.25;100.00;52625.72;2079537;28;33785;-81
2023/11/27 02:16:18;;;;;;;53.60;28.48;;;;;;;-146.25;100.00;52591.25;2071894;28;24441;-80
2023/11/27 02:17:19;;;;;;;55.55;28.45;;;;;;;-146.25;100.00;52617.59;2072067;28;20038;-80
2023/11/27 02:18:21;;;;;;;52.83;28.67;;;;;;;-146.25;100.00;52605.44;2072465;28;20831;-81
2023/11/27 02:19:23;;;;;;;56.67;30.20;;;;;;;-146.25;100.00;52621.66;2087717;28;28509;-81
2023/11/27 02:20:26;;;;;;;55.45;29.23;;;;;;;-146.25;100.00;52643.97;2079884;28;22764;-81
2023/11/27 02:21:28;;;;;;;55.65;29.42;;;;;;;-146.25;100.00;52605.44;2088137;28;20932;-81
2023/11/27 02:22:30;;;;;;;55.63;28.88;;;;;;;-146.25;100.00;52607.47;2095930;28;31976;-81
2023/11/27 02:23:32;;;;;;;58.08;31.05;;;;;;;-146.25;100.00;52603.41;2088005;28;20042;-81
2023/11/27 02:24:33;;;;;;;53.38;29.67;;;;;;;-146.25;100.00;52591.25;2079727;28;22385;-81
2023/11/27 02:25:35;;;;;;;55.30;30.13;;;;;;;-146.25;100.00;52623.69;2079123;28;24660;-81
2023/11/27 02:26:40;;;;;;;57.20;30.40;;;;;;;-146.25;100.00;52625.72;2087968;28;30168;-81
2023/11/27 02:27:41;;;;;;;54.78;30.20;;;;;;;-146.25;100.00;52593.25;2088650;28;27947;-82
2023/11/27 02:28:45;;;;;;;62.17;32.30;;;;;;;-146.25;100.00;52597.31;2088528;28;31774;-81
2023/11/27 02:29:47;;;;;;;57.35;32.15;;;;;;;-146.25;100.00;52615.56;2087608;28;33150;-81
2023/11/27 02:30:52;;;;;;;60.85;34.78;;;;;;;-146.25;100.00;52585.16;2087795;28;20045;-81
2023/11/27 02:31:57;;;;;;;62.53;34.35;;;;;;;-146.25;100.00;52617.59;2087150;28;33427;-82
2023/11/27 02:32:58;;;;;;;65.50;34.80;;;;;;;-146.25;100.00;52585.16;2087963;28;32922;-82
2023/11/27 02:34:00;;;;;;;65.32;34.55;;;;;;;-146.25;100.00;52619.63;2087988;28;31157;-82
2023/11/27 02:35:03;;;;;;;74.03;35.90;;;;;;;-146.25;100.00;52601.38;2087562;28;26868;-82
2023/11/27 02:36:07;;;;;;;68.50;37.33;;;;;;;-146.25;100.00;52587.19;2087889;28;29912;-82
2023/11/27 02:37:09;;;;;;;70.07;38.08;;;;;;;-146.25;100.00;52615.56;2088117;28;33440;-81
2023/11/27 02:38:11;;;;;;;72.90;39.00;;;;;;;-146.25;100.00;52587.19;2088125;28;28656;-81
2023/11/27 02:39:14;;;;;;;70.50;37.97;;;;;;;-146.25;100.00;52617.59;2087493;28;28502;-81
2023/11/27 02:40:17;;;;;;;71.25;40.67;;;;;;;-146.25;100.00;52617.59;2087150;28;27945;-81
2023/11/27 02:41:19;;;;;;;75.55;39.63;;;;;;;-146.25;100.00;52615.56;2087905;28;20049;-81
2023/11/27 02:42:22;;;;;;;74.30;40.17;;;;;;;-146.25;100.00;52623.69;2087232;28;31762;-82
2023/11/27 02:43:26;;;;;;;77.50;41.22;;;;;;;-146.25;100.00;52639.91;2089022;28;20037;-81
2023/11/27 02:44:28;;;;;;;83.00;41.67;;;;;;;-146.25;100.00;52601.38;2087930;28;20148;-81
2023/11/27 02:45:33;;;;;;;77.30;40.70;;;;;;;-146.25;100.00;52617.59;2079714;28;20972;-81
2023/11/27 02:46:35;;;;;;;81.05;42.58;;;;;;;-146.25;100.00;52607.47;2070895;28;32236;-81
2023/11/27 02:47:40;;;;;;;82.05;43.33;;;;;;;-146.25;100.00;52631.78;2080413;28;20049;-82
2023/11/27 02:48:42;;;;;;;80.55;43.05;;;;;;;-146.25;100.00;52617.59;2087581;28;33001;-82
2023/11/27 02:49:44;;;;;;;79.85;43.92;;;;;;;-146.25;100.00;52619.63;2087248;28;25938;-81
2023/11/27 02:50:47;;;;;;;79.95;42.47;;;;;;;-146.25;100.00;52607.47;2087703;28;25884;-82
2023/11/27 02:51:49;;;;;;;82.95;43.60;;;;;;;-146.25;100.00;52601.38;2080161;28;20422;-81
2023/11/27 02:52:51;;;;;;;81.57;44.58;;;;;;;-146.25;100.00;52603.41;2087539;28;27302;-81
2023/11/27 02:53:58;;;;;;;78.03;44.47;;;;;;;-146.25;100.00;52615.56;2095907;28;26966;-81
2023/11/27 02:55:03;;;;;;;95.35;44.40;;;;;;;-146.25;100.00;52631.78;2088293;28;26509;-81
2023/11/27 02:56:08;;;;;;;85.95;45.95;;;;;;;-146.25;100.00;52617.59;2079321;28;30144;-81
2023/11/27 02:57:10;;;;;;;87.72;45.22;;;;;;;-146.25;100.00;52615.56;2073664;28;20095;-82
2023/11/27 02:58:13;;;;;;;83.32;45.17;;;;;;;-146.25;100.00;52591.25;2088011;28;20080;-82
2023/11/27 02:59:15;;;;;;;88.13;45.90;;;;;;;-146.25;100.00;52611.50;2087742;28;20033;-81
2023/11/27 03:00:18;;;;;;;79.32;46.00;;;;;;;-146.25;100.00;52581.09;2086688;28;27048;-82
2023/11/27 03:01:23;;;;;;;86.60;46.72;;;;;;;-146.25;100.00;52623.69;2087611;28;26075;-82
2023/11/27 03:02:26;;;;;;;86.53;46.00;;;;;;;-146.25;100.00;52583.13;2087809;28;28166;-81
2023/11/27 03:03:28;;;;;;;88.07;46.53;;;;;;;-146.25;100.00;52627.75;2087706;28;32818;-80
2023/11/27 03:04:34;;;;;;;93.57;48.63;;;;;;;-146.25;100.00;52639.91;2087566;28;27086;-81
2023/11/27 03:05:36;;;;;;;84.60;44.80;;;;;;;-146.25;100.00;52639.91;2087855;28;26537;-82
2023/11/27 03:06:38;;;;;;;91.03;46.95;;;;;;;-146.25;100.00;52627.75;2088136;28;20037;-82
2023/11/27 03:07:41;;;;;;;87.18;45.00;;;;;;;-146.25;100.00;52595.28;2087695;28;31083;-82
2023/11/27 03:08:43;;;;;;;94.25;47.35;;;;;;;-146.25;100.00;52627.75;2079192;28;26835;-82
2023/11/27 03:09:47;;;;;;;88.10;44.40;;;;;;;-146.25;100.00;52605.44;2088116;28;20140;-81
2023/11/27 03:10:53;;;;;;;84.88;46.20;;;;;;;-146.25;100.00;52613.53;2088612;28;20148;-82
2023/11/27 03:11:54;;;;;;;90.95;45.45;;;;;;;-146.25;100.00;52577.03;2087317;28;31742;-81
2023/11/27 03:12:58;;;;;;;81.38;44.90;;;;;;;-146.25;100.00;52607.47;2078503;28;20054;-81
2023/11/27 03:14:00;;;;;;;89.43;46.45;;;;;;;-146.25;100.00;52577.03;2087539;28;29039;-81
2023/11/27 03:15:03;;;;;;;79.82;44.47;;;;;;;-146.25;100.00;52629.75;2087204;28;32964;-82
2023/11/27 03:16:05;;;;;;;82.25;43.92;;;;;;;-146.25;100.00;52615.56;2088113;28;20817;-81
2023/11/27 03:17:07;;;;;;;78.20;43.85;;;;;;;-146.25;100.00;52637.88;2087479;28;29336;-79
2023/11/27 03:18:08;;;;;;;81.32;44.00;;;;;;;-146.25;100.00;52619.63;2088298;28;32891;-80
2023/11/27 03:19:10;;;;;;;81.43;43.08;;;;;;;-146.25;100.00;52619.63;2088146;28;27247;-81
2023/11/27 03:20:13;;;;;;;80.65;44.08;;;;;;;-146.25;100.00;52639.91;2088343;28;31228;-81
2023/11/27 03:21:22;;;;;;;79.45;43.55;;;;;;;-146.25;100.00;52623.69;2087682;28;20096;-80
2023/11/27 03:22:26;;;;;;;81.20;42.95;;;;;;;-146.25;100.00;52597.31;2079249;28;35131;-81
2023/11/27 03:23:28;;;;;;;82.68;43.80;;;;;;;-146.25;100.00;52635.84;2080117;28;21567;-81
2023/11/27 03:24:30;;;;;;;78.32;43.92;;;;;;;-146.25;100.00;52583.13;2088440;28;23479;-81
2023/11/27 03:25:32;;;;;;;84.38;43.70;;;;;;;-146.25;100.00;52609.50;2087084;28;29348;-81
2023/11/27 03:26:34;;;;;;;75.80;42.05;;;;;;;-146.25;100.00;52601.38;2088214;28;20904;-82
2023/11/27 03:27:37;;;;;;;83.60;43.47;;;;;;;-146.25;100.00;52591.25;2087010;28;20490;-81
2023/11/27 03:28:39;;;;;;;81.88;45.08;;;;;;;-146.25;100.00;52637.88;2087678;28;27650;-82
2023/11/27 03:29:41;;;;;;;80.25;43.08;;;;;;;-146.25;100.00;52654.09;2079005;28;20224;-83
2023/11/27 03:30:46;;;;;;;79.72;42.38;;;;;;;-146.25;100.00;52587.19;2080191;28;20038;-82
2023/11/27 03:31:47;;;;;;;76.40;43.15;;;;;;;-146.25;100.00;52583.13;2087716;28;20981;-81
2023/11/27 03:32:50;;;;;;;77.93;43.40;;;;;;;-146.25;100.00;52650.03;2079334;28;31885;-81
2023/11/27 03:33:52;;;;;;;81.68;43.72;;;;;;;-146.25;100.00;52617.59;2087225;28;33762;-81
2023/11/27 03:34:54;;;;;;;81.90;43.75;;;;;;;-146.25;100.00;52637.88;2088590;28;27100;-81
2023/11/27 03:35:58;;;;;;;87.88;44.08;;;;;;;-146.25;100.00;52607.47;2086920;28;32024;-81
2023/11/27 03:37:00;;;;;;;78.40;42.08;;;;;;;-146.25;100.00;52619.63;2080092;28;20034;-81
2023/11/27 03:38:02;;;;;;;73.95;43.13;;;;;;;-146.25;100.00;52607.47;2079555;28;28477;-81
2023/11/27 03:39:05;;;;;;;77.53;43.15;;;;;;;-146.25;100.00;52597.31;2087745;28;29373;-82
2023/11/27 03:40:08;;;;;;;80.38;44.13;;;;;;;-146.25;100.00;52621.66;2078715;28;29428;-80
2023/11/27 03:41:23;;;;;;;83.15;44.55;;;;;;;-146.25;100.00;52603.41;2080421;28;20034;-81
2023/11/27 03:42:26;;;;;;;77.10;42.10;;;;;;;-146.25;100.00;52639.91;2088510;28;20193;-82
2023/11/27 03:43:28;;;;;;;80.60;44.05;;;;;;;-146.25;100.00;52613.53;2087342;28;31706;-82
2023/11/27 03:44:30;;;;;;;83.00;44.60;;;;;;;-146.25;100.00;52593.25;2086907;28;27658;-82
2023/11/27 03:45:32;;;;;;;85.47;44.58;;;;;;;-146.25;100.00;52609.50;2087318;28;20156;-81
2023/11/27 03:46:34;;;;;;;87.40;45.00;;;;;;;-146.25;100.00;52605.44;2086708;28;32962;-82
2023/11/27 03:47:36;;;;;;;86.07;45.28;;;;;;;-146.25;100.00;52617.59;2087363;28;23033;-81
2023/11/27 03:48:38;;;;;;;85.57;44.92;;;;;;;-146.25;100.00;52589.22;2087515;28;24639;-82
2023/11/27 03:49:40;;;;;;;83.43;44.85;;;;;;;-146.25;100.00;52648.00;2088097;28;20045;-81
2023/11/27 03:50:42;;;;;;;83.30;45.85;;;;;;;-146.25;100.00;52597.31;2087233;28;25331;-82
2023/11/27 03:51:44;;;;;;;88.50;46.20;;;;;;;-146.25;100.00;52635.84;2079366;28;25920;-82
2023/11/27 03:52:47;;;;;;;85.28;46.40;;;;;;;-146.25;100.00;52607.47;2078994;28;28869;-82
2023/11/27 03:53:50;;;;;;;77.30;45.22;;;;;;;-146.25;100.00;52609.50;2080036;28;20050;-81
2023/11/27 03:54:55;;;;;;;81.30;44.80;;;;;;;-146.25;100.00;52593.25;2087485;28;20999;-82
2023/11/27 03:55:57;;;;;;;81.78;44.45;;;;;;;-146.25;100.00;52652.06;2087609;28;29119;-82
2023/11/27 03:56:59;;;;;;;80.75;45.78;;;;;;;-146.25;100.00;52595.28;2087557;28;23962;-82
2023/11/27 03:58:03;;;;;;;82.38;44.88;;;;;;;-146.25;100.00;52621.66;2087345;28;35654;-81
2023/11/27 03:59:05;;;;;;;85.40;44.70;;;;;;;-146.25;100.00;52629.75;2087661;28;20058;-82
2023/11/27 04:00:09;;;;;;;81.55;45.67;;;;;;;-146.25;100.00;52625.72;2087500;28;28403;-82
2023/11/27 04:01:14;;;;;;;77.10;43.90;;;;;;;-146.25;100.00;52601.38;2088381;28;20038;-82
2023/11/27 04:02:21;;;;;;;80.50;44.80;;;;;;;-146.25;100.00;52599.34;2089035;28;20033;-81
2023/11/27 04:03:23;;;;;;;78.18;44.55;;;;;;;-146.25;100.00;52587.19;2089166;28;29931;-82
2023/11/27 04:04:26;;;;;;;73.18;42.92;;;;;;;-146.25;100.00;52621.66;2089056;28;36642;-80
2023/11/27 04:05:28;;;;;;;81.30;43.35;;;;;;;-146.25;100.00;52625.72;2088922;28;20112;-81
2023/11/27 04:06:31;;;;;;;88.72;45.05;;;;;;;-146.25;100.00;52603.41;2088918;28;26504;-82
2023/11/27 04:07:33;;;;;;;67.93;43.03;;;;;;;-146.25;100.00;52615.56;2089385;28;24874;-81
2023/11/27 04:08:39;;;;;;;69.90;41.67;;;;;;;-146.25;100.00;52676.41;2089651;28;20041;-80
2023/11/27 04:09:41;;;;;;;75.65;43.65;;;;;;;-146.25;100.00;52617.59;2088555;28;36720;-82
2023/11/27 04:10:42;;;;;;;75.85;42.28;;;;;;;-146.25;100.00;52615.56;2089969;28;20878;-81
2023/11/27 04:11:48;;;;;;;69.85;40.80;;;;;;;-146.25;100.00;52617.59;2089608;28;20055;-82
2023/11/27 04:12:50;;;;;;;75.10;42.20;;;;;;;-146.25;100.00;52589.22;2089169;28;36120;-80
2023/11/27 04:13:52;;;;;;;73.47;42.83;;;;;;;-146.25;100.00;52617.59;2088905;28;29103;-81
2023/11/27 04:14:54;;;;;;;74.00;40.67;;;;;;;-146.25;100.00;52623.69;2089367;28;20108;-82
2023/11/27 04:15:56;;;;;;;72.65;42.63;;;;;;;-146.25;100.00;52579.06;2088276;28;30756;-81
2023/11/27 04:16:58;;;;;;;73.68;41.45;;;;;;;-146.25;100.00;52599.34;2088936;28;20040;-82
2023/11/27 04:18:00;;;;;;;75.53;41.20;;;;;;;-146.25;100.00;52631.78;2088433;28;33417;-81
2023/11/27 04:19:07;;;;;;;62.20;39.28;;;;;;;-146.25;100.00;52629.75;2089033;28;20045;-81
2023/11/27 04:20:11;;;;;;;71.20;40.90;;;;;;;-146.25;100.00;52615.56;2089494;28;20042;-81
2023/11/27 04:21:17;;;;;;;67.97;39.92;;;;;;;-146.25;100.00;52623.69;2080655;28;35655;-81
2023/11/27 04:22:18;;;;;;;75.55;40.45;;;;;;;-146.25;100.00;52609.50;2088495;28;32369;-82
2023/11/27 04:23:20;;;;;;;66.47;39.40;;;;;;;-146.25;100.00;52603.41;2089278;28;30863;-81
2023/11/27 04:24:22;;;;;;;68.03;39.78;;;;;;;-146.25;100.00;52639.91;2088163;28;35741;-81
2023/11/27 04:25:24;;;;;;;65.50;39.53;;;;;;;-146.25;100.00;52629.75;2089044;28;20160;-81
2023/11/27 04:26:25;;;;;;;69.20;39.70;;;;;;;-146.25;100.00;52631.78;2088103;28;35056;-81
2023/11/27 04:27:30;;;;;;;63.03;38.00;;;;;;;-146.25;100.00;52599.34;2088653;28;27205;-80
2023/11/27 04:28:32;;;;;;;68.95;39.55;;;;;;;-146.25;100.00;52623.69;2089666;28;20848;-82
2023/11/27 04:29:34;;;;;;;68.72;38.15;;;;;;;-146.25;100.00;52581.09;2088786;28;37274;-82
2023/11/27 04:30:36;;;;;;;62.47;38.15;;;;;;;-146.25;100.00;52591.25;2088941;28;28644;-81
2023/11/27 04:31:38;;;;;;;60.75;37.00;;;;;;;-146.25;100.00;52589.22;2089623;28;20957;-81
2023/11/27 04:32:40;;;;;;;62.42;38.25;;;;;;;-146.25;100.00;52603.41;2088682;28;35873;-81
2023/11/27 04:33:41;;;;;;;61.10;36.30;;;;;;;-146.25;100.00;52607.47;2088173;28;35450;-81
2023/11/27 04:34:43;;;;;;;59.70;36.92;;;;;;;-146.25;100.00;52615.56;2089236;28;20347;-82
2023/11/27 04:35:45;;;;;;;62.40;37.13;;;;;;;-146.25;100.00;52607.47;2088974;28;37986;-80
2023/11/27 04:36:48;;;;;;;61.92;35.65;;;;;;;-146.25;100.00;52639.91;2089054;28;31739;-81
2023/11/27 04:37:50;;;;;;;58.20;35.53;;;;;;;-146.25;100.00;52650.03;2089632;28;20037;-79
2023/11/27 04:38:52;;;;;;;56.25;37.30;;;;;;;-146.25;100.00;52595.28;2088775;28;33921;-82
2023/11/27 04:39:55;;;;;;;58.80;35.50;;;;;;;-146.25;100.00;52579.06;2089739;28;34516;-82
2023/11/27 04:40:57;;;;;;;59.38;34.78;;;;;;;-146.25;100.00;52611.50;2089480;28;20085;-82
2023/11/27 04:41:59;;;;;;;51.05;33.92;;;;;;;-146.25;100.00;52587.19;2089559;28;36220;-81